Aérodrome :
LOGIN :

S'inscrire | Disclaimer

   EN    FR    IT 

 










Légende :    VFR   VFR Marginal   IFR   IFR Intensif   IFR Très Intensif
Visi : 
Plafond : 
>= 8 km
>= 3000ft
5 à 8 km
1000 à 3000 ft
1500m à 5 km
500 à 1000 ft
800 à 1500m
200 à 500 ft
< 800m
< 200 ft
Symboles :   Orages  Brouillard  Fortes neiges  Fortes précipitations  Vent > 20 kt
SIGMETs :   Divers  Orages  Givrage  Turbulence  Onde Orograph.  Cendres Volcan.






- Altitude de l'aérodrome : 125 ft
- Code IATA : MGL


EDLN - Mönchengladbach

DERNIER METAR :
  • 010320Z AUTO 06005KT 010V090 4000 // OVC002/// 03/03 Q1034

METARs EXPIRÉS :
  • 010250Z AUTO 05006KT 020V090 4100 // OVC003/// 03/03 Q1034
  • 010220Z AUTO 06006KT 030V090 4400 // BKN003/// 03/03 Q1034
  • 010150Z AUTO 06005KT 030V090 4500 // SCT004/// 03/02 Q1034
  • 010120Z AUTO 06005KT 5000 // NCD 03/03 Q1034
  • 010050Z AUTO 06005KT 030V100 8000 // NCD 04/03 Q1034

Prévision TAF périmée.



MET'MAP, la Météo Aéronautique d'un coup d'oeil ! - Copyright ORBIFLY Décembre 2007 - Disclaimer

ORBIFLY MET'MAP TEAM :

Programmation & Développement : Alexandra Zaïnal
Sur une idée originale de : Baudouin d'Aumeries
Assistance à la programmation : Marc-Olivier Méhu
Soutien technique & logistique : Manuel Goepfert

Contact : metmap@orbifly.com




SOURCES & CREDITS :

   NOAA